Time;durP1;ratioP1;P1;durP2;ratioP2;P2;SDS_P1;SDS_P2;PMS_P1;PMS_P2;Temp;Humidity;BMP_temperature;BMP_pressure;BME280_temperature;BME280_humidity;BME280_pressure;Samples;Min_cycle;Max_cycle;Signal;HPM_P1;HPM_P2
2023/05/07 00:01:28;;;;;;;;;6.25;5.25;;;;;;;;5015304;28;45523;-79
2023/05/07 00:03:54;;;;;;;;;32.75;28.25;;;;;;;;5015346;28;45617;-79
2023/05/07 00:06:19;;;;;;;;;27.00;20.00;;;;;;;;5014502;28;45499;-81
2023/05/07 00:08:44;;;;;;;;;8.25;5.25;;;;;;;;5014462;28;47402;-79
2023/05/07 00:11:10;;;;;;;;;4.50;4.50;;;;;;;;5014021;28;45510;-76
2023/05/07 00:13:35;;;;;;;;;4.00;2.75;;;;;;;;5014852;28;45474;-81
2023/05/07 00:16:03;;;;;;;;;3.00;2.75;;;;;;;;5013474;28;45578;-78
2023/05/07 00:18:28;;;;;;;;;3.50;3.50;;;;;;;;5014657;28;45942;-77
2023/05/07 00:20:54;;;;;;;;;3.50;3.50;;;;;;;;5014029;28;45371;-78
2023/05/07 00:23:19;;;;;;;;;6.00;5.50;;;;;;;;5026885;28;45753;-78
2023/05/07 00:25:44;;;;;;;;;4.00;4.00;;;;;;;;5035451;28;45504;-80
2023/05/07 00:28:10;;;;;;;;;2.75;2.75;;;;;;;;5035353;28;47446;-78
2023/05/07 00:30:35;;;;;;;;;1.00;1.00;;;;;;;;5017390;28;45516;-80
2023/05/07 00:33:00;;;;;;;;;4.25;4.25;;;;;;;;5036082;28;45466;-80
2023/05/07 00:35:25;;;;;;;;;3.50;3.00;;;;;;;;5034975;28;45449;-79
2023/05/07 00:37:51;;;;;;;;;3.50;3.25;;;;;;;;5035973;28;46436;-81
2023/05/07 00:40:16;;;;;;;;;5.00;3.75;;;;;;;;5034974;28;45536;-76
2023/05/07 00:42:41;;;;;;;;;3.75;3.75;;;;;;;;5027025;28;45351;-76
2023/05/07 00:45:07;;;;;;;;;4.00;4.00;;;;;;;;5014302;28;45408;-79
2023/05/07 00:47:33;;;;;;;;;3.75;3.75;;;;;;;;5014367;28;45570;-76
2023/05/07 00:49:58;;;;;;;;;3.25;3.25;;;;;;;;5014095;28;45550;-76
2023/05/07 00:52:25;;;;;;;;;4.00;3.25;;;;;;;;5014539;28;45411;-77
2023/05/07 00:54:51;;;;;;;;;4.00;4.00;;;;;;;;5021543;28;45396;-78
2023/05/07 00:57:16;;;;;;;;;4.75;4.75;;;;;;;;5016378;28;48161;-75
2023/05/07 00:59:42;;;;;;;;;6.25;5.00;;;;;;;;5022251;28;45398;-78
2023/05/07 01:02:07;;;;;;;;;4.75;4.75;;;;;;;;5018639;28;45398;-75
2023/05/07 01:04:32;;;;;;;;;6.75;6.00;;;;;;;;5019325;28;45215;-77
2023/05/07 01:06:59;;;;;;;;;6.50;5.25;;;;;;;;5019214;28;45489;-77
2023/05/07 01:09:24;;;;;;;;;4.50;4.50;;;;;;;;5019757;28;45359;-78
2023/05/07 01:11:51;;;;;;;;;6.00;6.00;;;;;;;;5019403;28;45256;-78
2023/05/07 01:14:16;;;;;;;;;4.25;4.25;;;;;;;;5022339;28;45469;-76
2023/05/07 01:16:42;;;;;;;;;5.00;3.75;;;;;;;;5037738;28;47276;-77
2023/05/07 01:19:13;;;;;;;;;3.25;3.25;;;;;;;;5038858;28;45374;-78
2023/05/07 01:21:41;;;;;;;;;3.00;3.00;;;;;;;;5038677;28;45481;-78
2023/05/07 01:24:06;;;;;;;;;3.25;3.25;;;;;;;;5039173;28;45478;-78
2023/05/07 01:26:31;;;;;;;;;4.00;4.00;;;;;;;;5038301;28;46163;-78
2023/05/07 01:28:56;;;;;;;;;1.75;1.00;;;;;;;;5038719;28;45530;-77
2023/05/07 01:31:23;;;;;;;;;3.00;3.00;;;;;;;;5038571;28;45382;-78
2023/05/07 01:33:48;;;;;;;;;2.25;2.25;;;;;;;;5038659;28;45369;-78
2023/05/07 01:36:14;;;;;;;;;4.75;4.75;;;;;;;;5038127;28;45405;-79
2023/05/07 01:38:41;;;;;;;;;3.50;2.75;;;;;;;;5038100;28;45415;-78
2023/05/07 01:41:06;;;;;;;;;2.25;2.25;;;;;;;;5037229;28;45407;-79
2023/05/07 01:43:32;;;;;;;;;2.00;2.00;;;;;;;;5023958;28;45403;-79
2023/05/07 01:45:57;;;;;;;;;0.75;0.75;;;;;;;;5018113;28;45284;-78
2023/05/07 01:48:24;;;;;;;;;1.00;1.00;;;;;;;;5018181;28;45353;-78
2023/05/07 01:50:50;;;;;;;;;1.00;1.00;;;;;;;;5018464;28;45383;-79
2023/05/07 01:53:15;;;;;;;;;0.50;0.50;;;;;;;;5018383;28;45348;-79
2023/05/07 01:55:40;;;;;;;;;1.00;1.00;;;;;;;;5018371;28;47386;-78
2023/05/07 01:58:06;;;;;;;;;1.00;1.00;;;;;;;;5016357;28;45649;-79
2023/05/07 02:00:31;;;;;;;;;0.75;0.75;;;;;;;;5018178;28;45439;-79
2023/05/07 02:02:56;;;;;;;;;0.50;0.50;;;;;;;;5016583;28;45446;-77
2023/05/07 02:05:22;;;;;;;;;0.00;0.00;;;;;;;;5015913;28;46402;-75
2023/05/07 02:07:47;;;;;;;;;0.75;0.75;;;;;;;;5016838;28;45515;-75
2023/05/07 02:10:12;;;;;;;;;1.00;1.00;;;;;;;;5017754;28;45388;-75
2023/05/07 02:12:38;;;;;;;;;0.00;0.00;;;;;;;;5017574;28;45424;-76
2023/05/07 02:15:03;;;;;;;;;0.25;0.25;;;;;;;;5015950;28;47413;-76
2023/05/07 02:17:31;;;;;;;;;1.00;1.00;;;;;;;;5017193;28;45509;-75
2023/05/07 02:19:56;;;;;;;;;1.00;1.00;;;;;;;;5017471;28;45374;-76
2023/05/07 02:22:22;;;;;;;;;0.50;0.50;;;;;;;;5017646;28;45462;-76
2023/05/07 02:24:47;;;;;;;;;0.67;0.67;;;;;;;;5017249;28;46243;-75
2023/05/07 02:27:12;;;;;;;;;1.00;1.00;;;;;;;;5028830;28;45331;-76
2023/05/07 02:29:37;;;;;;;;;1.50;1.50;;;;;;;;5037396;28;45419;-76
2023/05/07 02:32:02;;;;;;;;;1.00;1.00;;;;;;;;5037286;28;45457;-76
2023/05/07 02:34:28;;;;;;;;;0.50;0.50;;;;;;;;5037489;28;47734;-76
2023/05/07 02:36:53;;;;;;;;;0.75;0.75;;;;;;;;5037171;28;45243;-76
2023/05/07 02:39:18;;;;;;;;;2.25;1.75;;;;;;;;5037233;28;45347;-75
2023/05/07 02:41:43;;;;;;;;;3.50;1.50;;;;;;;;5036702;28;45439;-75
2023/05/07 02:44:09;;;;;;;;;2.50;2.50;;;;;;;;5017582;28;45399;-76
2023/05/07 02:46:34;;;;;;;;;2.00;2.00;;;;;;;;5016945;28;45373;-75
2023/05/07 02:48:59;;;;;;;;;2.00;2.00;;;;;;;;5017325;28;45459;-77
2023/05/07 02:51:25;;;;;;;;;3.00;3.00;;;;;;;;5016978;28;45353;-77
2023/05/07 02:53:51;;;;;;;;;1.75;1.75;;;;;;;;5017272;28;46210;-79
2023/05/07 02:56:16;;;;;;;;;2.75;1.75;;;;;;;;5016995;28;45435;-78
2023/05/07 02:58:44;;;;;;;;;1.00;1.00;;;;;;;;5017530;28;45370;-78
2023/05/07 03:01:09;;;;;;;;;5.00;4.00;;;;;;;;5015529;28;45457;-78
2023/05/07 03:03:35;;;;;;;;;3.00;3.00;;;;;;;;5016355;28;47277;-79
2023/05/07 03:06:00;;;;;;;;;4.75;3.50;;;;;;;;5016767;28;45455;-78
2023/05/07 03:08:25;;;;;;;;;5.00;4.50;;;;;;;;5016977;28;45438;-79
2023/05/07 03:10:51;;;;;;;;;5.25;5.25;;;;;;;;5015273;28;45373;-77
2023/05/07 03:13:16;;;;;;;;;3.50;3.50;;;;;;;;5016588;28;46228;-77
2023/05/07 03:15:41;;;;;;;;;4.25;3.75;;;;;;;;5012396;28;45388;-77
2023/05/07 03:18:06;;;;;;;;;4.25;3.00;;;;;;;;5016437;28;45233;-76
2023/05/07 03:20:32;;;;;;;;;4.00;4.00;;;;;;;;5016806;28;45327;-75
2023/05/07 03:22:57;;;;;;;;;3.75;2.75;;;;;;;;5016316;28;45415;-75
2023/05/07 03:25:22;;;;;;;;;2.00;2.00;;;;;;;;5016798;28;45605;-75
2023/05/07 03:27:47;;;;;;;;;1.00;1.00;;;;;;;;5016936;28;45205;-79
2023/05/07 03:30:12;;;;;;;;;1.00;1.00;;;;;;;;5016982;28;45217;-78
2023/05/07 03:32:38;;;;;;;;;1.75;1.00;;;;;;;;5017096;28;46293;-78
2023/05/07 03:35:03;;;;;;;;;2.00;2.00;;;;;;;;5017355;28;45489;-80
2023/05/07 03:37:29;;;;;;;;;3.25;2.75;;;;;;;;5017368;28;45422;-79
2023/05/07 03:39:54;;;;;;;;;2.00;2.00;;;;;;;;5017279;28;45314;-79
2023/05/07 03:42:20;;;;;;;;;6.00;5.00;;;;;;;;5018258;28;46320;-78
2023/05/07 03:44:45;;;;;;;;;4.75;3.75;;;;;;;;5021552;28;45304;-77
2023/05/07 03:47:10;;;;;;;;;4.25;4.25;;;;;;;;5019637;28;45307;-78
2023/05/07 03:49:35;;;;;;;;;4.00;4.00;;;;;;;;5017269;28;45528;-78
2023/05/07 03:52:01;;;;;;;;;4.00;4.00;;;;;;;;5015899;28;45987;-78
2023/05/07 03:54:26;;;;;;;;;2.00;2.00;;;;;;;;5015946;28;45442;-77
2023/05/07 03:56:51;;;;;;;;;1.00;1.00;;;;;;;;5016242;28;45532;-77
2023/05/07 03:59:17;;;;;;;;;0.00;0.00;;;;;;;;5015986;28;45336;-76
2023/05/07 04:01:42;;;;;;;;;0.25;0.25;;;;;;;;5016140;28;47373;-77
2023/05/07 04:04:07;;;;;;;;;0.75;0.75;;;;;;;;5015752;28;45363;-77
2023/05/07 04:06:33;;;;;;;;;0.67;0.67;;;;;;;;5016384;28;45395;-77
2023/05/07 04:08:58;;;;;;;;;1.00;1.00;;;;;;;;5015617;28;45348;-77
2023/05/07 04:11:23;;;;;;;;;1.00;0.00;;;;;;;;5015214;28;46048;-78
2023/05/07 04:13:48;;;;;;;;;1.00;1.00;;;;;;;;5015889;28;45550;-78
2023/05/07 04:16:14;;;;;;;;;0.00;0.00;;;;;;;;5035941;28;45426;-78
2023/05/07 04:18:39;;;;;;;;;0.67;0.67;;;;;;;;5035790;28;45434;-78
2023/05/07 04:21:04;;;;;;;;;0.00;0.00;;;;;;;;5035581;28;45456;-79
2023/05/07 04:23:30;;;;;;;;;3.25;3.25;;;;;;;;5035261;28;45923;-77
2023/05/07 04:25:55;;;;;;;;;3.25;3.25;;;;;;;;5035875;28;45437;-76
2023/05/07 04:28:21;;;;;;;;;2.25;2.25;;;;;;;;5034894;28;45592;-77
2023/05/07 04:30:46;;;;;;;;;1.75;1.75;;;;;;;;5035191;28;47116;-77
2023/05/07 04:33:11;;;;;;;;;1.33;1.00;;;;;;;;5035482;28;45312;-78
2023/05/07 04:35:37;;;;;;;;;2.00;2.00;;;;;;;;5035588;28;45413;-77
2023/05/07 04:38:02;;;;;;;;;2.00;1.00;;;;;;;;5035305;28;45421;-77
2023/05/07 04:40:27;;;;;;;;;1.25;1.25;;;;;;;;5035498;28;45402;-79
2023/05/07 04:42:52;;;;;;;;;0.50;0.50;;;;;;;;5026441;28;45456;-78
2023/05/07 04:45:18;;;;;;;;;1.75;1.75;;;;;;;;5015447;28;45689;-78
2023/05/07 04:47:43;;;;;;;;;3.00;3.00;;;;;;;;5015733;28;45418;-78
2023/05/07 04:50:09;;;;;;;;;2.00;2.00;;;;;;;;5015335;28;46308;-79
2023/05/07 04:52:34;;;;;;;;;1.00;1.00;;;;;;;;5015316;28;45442;-75
2023/05/07 04:55:00;;;;;;;;;2.00;2.00;;;;;;;;5015237;28;45478;-76
2023/05/07 04:57:26;;;;;;;;;2.00;2.00;;;;;;;;5015154;28;45489;-76
2023/05/07 04:59:51;;;;;;;;;2.75;1.00;;;;;;;;5015155;28;46582;-76
2023/05/07 05:02:16;;;;;;;;;0.67;0.67;;;;;;;;5015284;28;45315;-74
2023/05/07 05:04:41;;;;;;;;;0.00;0.00;;;;;;;;5015584;28;45378;-78
2023/05/07 05:07:07;;;;;;;;;1.67;0.00;;;;;;;;5015421;28;45367;-78
2023/05/07 05:09:32;;;;;;;;;0.50;0.50;;;;;;;;5015253;28;46381;-77
2023/05/07 05:11:57;;;;;;;;;0.00;0.00;;;;;;;;5015184;28;45240;-77
2023/05/07 05:14:22;;;;;;;;;0.00;0.00;;;;;;;;5015133;28;45276;-77
2023/05/07 05:16:47;;;;;;;;;0.00;0.00;;;;;;;;5015278;28;45425;-76
2023/05/07 05:19:13;;;;;;;;;1.00;1.00;;;;;;;;5026825;28;46136;-76
2023/05/07 05:21:38;;;;;;;;;0.33;0.00;;;;;;;;5034732;28;45366;-77
2023/05/07 05:24:03;;;;;;;;;1.00;1.00;;;;;;;;5035097;28;45450;-77
2023/05/07 05:26:28;;;;;;;;;0.67;0.67;;;;;;;;5034629;28;45432;-76
2023/05/07 05:28:54;;;;;;;;;0.67;0.67;;;;;;;;5033471;28;47297;-76
2023/05/07 05:31:19;;;;;;;;;0.33;0.33;;;;;;;;5034421;28;45445;-76
2023/05/07 05:33:44;;;;;;;;;1.00;1.00;;;;;;;;5035108;28;45385;-77
2023/05/07 05:36:10;;;;;;;;;1.00;1.00;;;;;;;;5034371;28;45315;-77
2023/05/07 05:38:35;;;;;;;;;1.00;1.00;;;;;;;;5034656;28;46400;-77
2023/05/07 05:41:01;;;;;;;;;1.00;1.00;;;;;;;;5036904;28;45474;-76
2023/05/07 05:43:26;;;;;;;;;0.00;0.00;;;;;;;;5024686;28;45557;-77
2023/05/07 05:45:51;;;;;;;;;0.00;0.00;;;;;;;;5018603;28;45189;-77
2023/05/07 05:48:16;;;;;;;;;1.67;1.00;;;;;;;;5018104;28;46367;-78
2023/05/07 05:50:42;;;;;;;;;1.00;1.00;;;;;;;;5017661;28;45296;-79
2023/05/07 05:53:07;;;;;;;;;3.67;3.00;;;;;;;;5018510;28;45177;-78
2023/05/07 05:55:32;;;;;;;;;3.00;1.67;;;;;;;;5018139;28;45314;-77
2023/05/07 05:57:58;;;;;;;;;1.00;1.00;;;;;;;;5016668;28;47389;-78
2023/05/07 06:00:23;;;;;;;;;3.00;2.00;;;;;;;;5016785;28;45349;-78
2023/05/07 06:02:48;;;;;;;;;2.00;2.00;;;;;;;;5017871;28;45308;-76
2023/05/07 06:05:13;;;;;;;;;0.33;0.33;;;;;;;;5017814;28;45232;-77
2023/05/07 06:07:39;;;;;;;;;2.00;2.00;;;;;;;;5017991;28;46199;-77
2023/05/07 06:10:04;;;;;;;;;5.00;5.00;;;;;;;;5017658;28;45257;-77
2023/05/07 06:12:29;;;;;;;;;4.50;4.50;;;;;;;;5018101;28;45281;-77
2023/05/07 06:14:55;;;;;;;;;6.25;5.50;;;;;;;;5017723;28;45355;-78
2023/05/07 06:17:20;;;;;;;;;2.75;1.75;;;;;;;;5018509;28;46236;-77
2023/05/07 06:19:45;;;;;;;;;1.00;1.00;;;;;;;;5017651;28;45303;-76
2023/05/07 06:22:10;;;;;;;;;1.25;1.25;;;;;;;;5017584;28;45387;-76
2023/05/07 06:24:36;;;;;;;;;1.00;1.00;;;;;;;;5017937;28;45300;-76
2023/05/07 06:27:01;;;;;;;;;0.67;0.67;;;;;;;;5017229;28;46570;-76
2023/05/07 06:29:26;;;;;;;;;1.00;1.00;;;;;;;;5017514;28;45638;-75
2023/05/07 06:31:52;;;;;;;;;1.00;1.00;;;;;;;;5017489;28;45489;-75
2023/05/07 06:34:17;;;;;;;;;1.00;1.00;;;;;;;;5021200;28;45513;-75
2023/05/07 06:36:42;;;;;;;;;1.33;1.00;;;;;;;;5036912;28;45555;-76
2023/05/07 06:39:08;;;;;;;;;1.00;0.00;;;;;;;;5037349;28;45466;-76
2023/05/07 06:41:34;;;;;;;;;1.00;1.00;;;;;;;;5037522;28;45437;-75
2023/05/07 06:43:59;;;;;;;;;1.00;1.00;;;;;;;;5019227;28;45418;-76
2023/05/07 06:46:24;;;;;;;;;0.00;0.00;;;;;;;;5017173;28;46373;-74
2023/05/07 06:48:49;;;;;;;;;0.00;0.00;;;;;;;;5017299;28;45471;-78
2023/05/07 06:51:15;;;;;;;;;0.67;0.00;;;;;;;;5016654;28;45364;-77
2023/05/07 06:53:40;;;;;;;;;1.00;1.00;;;;;;;;5017352;28;45454;-77
2023/05/07 06:56:05;;;;;;;;;0.00;0.00;;;;;;;;5017233;28;46225;-78
2023/05/07 06:58:30;;;;;;;;;0.67;0.33;;;;;;;;5017389;28;45505;-77
2023/05/07 07:00:56;;;;;;;;;1.00;1.00;;;;;;;;5019077;28;45541;-78
2023/05/07 07:03:21;;;;;;;;;0.00;0.00;;;;;;;;5018667;28;45433;-78
2023/05/07 07:05:46;;;;;;;;;0.33;0.33;;;;;;;;5018405;28;45542;-78
2023/05/07 07:08:11;;;;;;;;;0.00;0.00;;;;;;;;5017698;28;45236;-78
2023/05/07 07:10:37;;;;;;;;;0.00;0.00;;;;;;;;5017883;28;45315;-78
2023/05/07 07:13:02;;;;;;;;;0.00;0.00;;;;;;;;5018345;28;45490;-78
2023/05/07 07:15:27;;;;;;;;;0.00;0.00;;;;;;;;5017649;28;45483;-78
2023/05/07 07:17:52;;;;;;;;;1.00;1.00;;;;;;;;5018544;28;45526;-80
2023/05/07 07:20:17;;;;;;;;;0.00;0.00;;;;;;;;5019178;28;45446;-79
2023/05/07 07:22:42;;;;;;;;;2.00;0.00;;;;;;;;5019042;28;45345;-79
2023/05/07 07:25:08;;;;;;;;;1.00;1.00;;;;;;;;5018594;28;45544;-79
2023/05/07 07:27:33;;;;;;;;;0.67;0.67;;;;;;;;5034670;28;45402;-79
2023/05/07 07:29:58;;;;;;;;;1.00;1.00;;;;;;;;5040800;28;45256;-76
2023/05/07 07:32:24;;;;;;;;;1.33;1.00;;;;;;;;5042605;28;45229;-77
2023/05/07 07:34:49;;;;;;;;;1.00;1.00;;;;;;;;5042800;28;45411;-76
2023/05/07 07:37:14;;;;;;;;;0.00;0.00;;;;;;;;5037477;28;45441;-76
2023/05/07 07:39:39;;;;;;;;;3.00;1.00;;;;;;;;5036741;28;45324;-76
2023/05/07 07:42:05;;;;;;;;;5.00;4.00;;;;;;;;5034128;28;45503;-76
2023/05/07 07:44:30;;;;;;;;;2.33;2.33;;;;;;;;5016376;28;45458;-77
2023/05/07 07:46:55;;;;;;;;;2.33;2.00;;;;;;;;5016259;28;45364;-78
2023/05/07 07:49:20;;;;;;;;;0.67;0.67;;;;;;;;5016443;28;45257;-77
2023/05/07 07:51:46;;;;;;;;;3.00;1.00;;;;;;;;5016437;28;45311;-77
2023/05/07 07:54:11;;;;;;;;;2.67;1.33;;;;;;;;5016404;28;46430;-78
2023/05/07 07:56:37;;;;;;;;;1.33;1.00;;;;;;;;5016529;28;45500;-77
2023/05/07 07:59:03;;;;;;;;;0.00;0.00;;;;;;;;5016844;28;45351;-79
2023/05/07 08:01:29;;;;;;;;;1.00;1.00;;;;;;;;5016586;28;45371;-79
2023/05/07 08:03:54;;;;;;;;;0.33;0.33;;;;;;;;5016709;28;46167;-79
2023/05/07 08:06:20;;;;;;;;;1.00;1.00;;;;;;;;5016059;28;45268;-79
2023/05/07 08:08:45;;;;;;;;;0.67;0.67;;;;;;;;5016217;28;45359;-79
2023/05/07 08:11:10;;;;;;;;;1.00;0.00;;;;;;;;5015376;28;45418;-78
2023/05/07 08:13:36;;;;;;;;;1.00;1.00;;;;;;;;5016253;28;46169;-78
2023/05/07 08:16:01;;;;;;;;;0.00;0.00;;;;;;;;5016125;28;45332;-80
2023/05/07 08:18:28;;;;;;;;;2.67;1.67;;;;;;;;5017017;28;45295;-80
2023/05/07 08:20:54;;;;;;;;;1.50;1.50;;;;;;;;5016345;28;45405;-80
2023/05/07 08:23:19;;;;;;;;;0.67;0.67;;;;;;;;5016412;28;45394;-81
2023/05/07 08:25:44;;;;;;;;;1.67;1.00;;;;;;;;5016461;28;45235;-80
2023/05/07 08:28:09;;;;;;;;;1.00;1.00;;;;;;;;5016589;28;45237;-81
2023/05/07 08:30:34;;;;;;;;;1.00;0.00;;;;;;;;5015131;28;45348;-81
2023/05/07 08:33:00;;;;;;;;;2.00;2.00;;;;;;;;5016682;28;46230;-82
2023/05/07 08:35:26;;;;;;;;;1.67;1.67;;;;;;;;5017328;28;45367;-78
2023/05/07 08:37:51;;;;;;;;;0.67;0.67;;;;;;;;5016712;28;45367;-80
2023/05/07 08:40:16;;;;;;;;;0.50;0.50;;;;;;;;5016030;28;45904;-81
2023/05/07 08:42:43;;;;;;;;;1.33;1.33;;;;;;;;5016203;28;46003;-81
2023/05/07 08:45:09;;;;;;;;;0.75;0.75;;;;;;;;5017034;28;45384;-81
2023/05/07 08:47:38;;;;;;;;;1.25;1.25;;;;;;;;5015440;28;45416;-81
2023/05/07 08:50:04;;;;;;;;;2.00;2.00;;;;;;;;5016825;28;45438;-80
2023/05/07 08:52:30;;;;;;;;;2.50;1.75;;;;;;;;5015981;28;47266;-78
2023/05/07 08:54:56;;;;;;;;;1.00;1.00;;;;;;;;5014757;28;45322;-78
2023/05/07 08:57:23;;;;;;;;;1.00;1.00;;;;;;;;5016890;28;45391;-79
2023/05/07 08:59:48;;;;;;;;;2.33;1.00;;;;;;;;5016742;28;45304;-78
2023/05/07 09:02:14;;;;;;;;;3.00;2.00;;;;;;;;5016374;28;46139;-78
2023/05/07 09:04:39;;;;;;;;;1.00;1.00;;;;;;;;5016729;28;45559;-80
2023/05/07 09:07:05;;;;;;;;;0.67;0.67;;;;;;;;5015610;28;45404;-79
2023/05/07 09:09:32;;;;;;;;;2.33;2.00;;;;;;;;5016060;28;45454;-79
2023/05/07 09:12:00;;;;;;;;;3.25;2.00;;;;;;;;5015756;28;45280;-79
2023/05/07 09:14:25;;;;;;;;;1.00;1.00;;;;;;;;5015702;28;45405;-78
2023/05/07 09:16:54;;;;;;;;;1.00;1.00;;;;;;;;5019683;28;44797;-78
2023/05/07 09:19:23;;;;;;;;;0.33;0.33;;;;;;;;5031719;28;45477;-78
2023/05/07 09:21:48;;;;;;;;;1.33;1.33;;;;;;;;5037328;28;47561;-77
2023/05/07 09:24:15;;;;;;;;;1.33;1.33;;;;;;;;5038844;28;45292;-78
2023/05/07 09:26:40;;;;;;;;;2.00;2.00;;;;;;;;5040033;28;45367;-77
2023/05/07 09:29:07;;;;;;;;;1.50;1.50;;;;;;;;5039445;28;45343;-78
2023/05/07 09:31:32;;;;;;;;;2.00;1.00;;;;;;;;5040007;28;45449;-79
2023/05/07 09:33:57;;;;;;;;;2.50;2.00;;;;;;;;5038571;28;45338;-78
2023/05/07 09:36:22;;;;;;;;;2.67;2.67;;;;;;;;5019807;28;45493;-79
2023/05/07 09:38:51;;;;;;;;;2.00;2.00;;;;;;;;5020260;28;45249;-78
2023/05/07 09:41:16;;;;;;;;;3.33;3.00;;;;;;;;5017849;28;46311;-79
2023/05/07 09:43:41;;;;;;;;;1.00;1.00;;;;;;;;5019982;28;45256;-79
2023/05/07 09:46:09;;;;;;;;;3.00;2.00;;;;;;;;5018419;28;45370;-79
2023/05/07 09:48:37;;;;;;;;;3.00;3.00;;;;;;;;5020366;28;45455;-79
2023/05/07 09:51:02;;;;;;;;;1.25;1.25;;;;;;;;5019478;28;45362;-78
2023/05/07 09:53:29;;;;;;;;;2.75;2.75;;;;;;;;5017861;28;45461;-78
2023/05/07 09:55:56;;;;;;;;;3.50;3.50;;;;;;;;5019791;28;45375;-80
2023/05/07 09:58:22;;;;;;;;;2.50;2.50;;;;;;;;5019396;28;45518;-78
2023/05/07 10:00:49;;;;;;;;;0.25;0.25;;;;;;;;5020217;28;46080;-78
2023/05/07 10:03:15;;;;;;;;;4.25;3.25;;;;;;;;5020829;28;45379;-78
2023/05/07 10:05:40;;;;;;;;;2.25;2.25;;;;;;;;5019884;28;45188;-78
2023/05/07 10:08:06;;;;;;;;;3.25;3.25;;;;;;;;5019188;28;45569;-79
2023/05/07 10:10:33;;;;;;;;;4.25;2.75;;;;;;;;5017523;28;46845;-78
2023/05/07 10:12:58;;;;;;;;;3.50;2.25;;;;;;;;5020299;28;45331;-79
2023/05/07 10:15:25;;;;;;;;;3.75;3.75;;;;;;;;5020716;28;45414;-78
2023/05/07 10:17:51;;;;;;;;;3.00;2.00;;;;;;;;5018841;28;45348;-77
2023/05/07 10:20:16;;;;;;;;;1.00;1.00;;;;;;;;5016642;28;46776;-77
2023/05/07 10:22:43;;;;;;;;;3.25;3.25;;;;;;;;5024402;28;45998;-76
2023/05/07 10:25:28;;;;;;;;;2.00;2.00;;;;;;;;5037336;28;45302;-76
2023/05/07 10:27:55;;;;;;;;;3.00;3.00;;;;;;;;5035966;28;45480;-78
2023/05/07 10:30:40;;;;;;;;;2.50;2.50;;;;;;;;5036386;28;47269;-81
2023/05/07 10:33:08;;;;;;;;;2.75;2.75;;;;;;;;4975923;28;45508;-79
2023/05/07 10:35:41;;;;;;;;;4.00;4.00;;;;;;;;4976408;28;45488;-80
2023/05/07 10:38:06;;;;;;;;;4.00;4.00;;;;;;;;4976102;28;45306;-81
2023/05/07 10:40:32;;;;;;;;;4.00;4.00;;;;;;;;4974913;28;46668;-79
2023/05/07 10:42:59;;;;;;;;;2.25;2.00;;;;;;;;4965887;28;45458;-84
2023/05/07 10:45:24;;;;;;;;;3.25;3.25;;;;;;;;4957458;28;45366;-80
2023/05/07 10:48:08;;;;;;;;;5.75;4.75;;;;;;;;4956677;28;45442;-83
2023/05/07 10:50:34;;;;;;;;;2.75;2.75;;;;;;;;4939850;28;46096;-87
2023/05/07 10:53:17;;;;;;;;;4.00;4.00;;;;;;;;4957082;28;45407;-78
2023/05/07 10:55:47;;;;;;;;;4.75;4.75;;;;;;;;4956206;28;45426;-79
2023/05/07 10:58:21;;;;;;;;;4.00;4.00;;;;;;;;4941430;28;45269;-81
2023/05/07 11:00:46;;;;;;;;;4.25;4.25;;;;;;;;4956307;28;45600;-85
2023/05/07 11:03:11;;;;;;;;;3.25;3.25;;;;;;;;4940746;28;45466;-82
2023/05/07 11:05:38;;;;;;;;;6.50;6.50;;;;;;;;4957894;28;45498;-84
2023/05/07 11:08:04;;;;;;;;;5.00;4.00;;;;;;;;4940972;28;45482;-83
2023/05/07 11:10:48;;;;;;;;;4.00;4.00;;;;;;;;4994130;28;45424;-83
2023/05/07 11:13:14;;;;;;;;;4.25;4.25;;;;;;;;5018511;28;45320;-80
2023/05/07 11:15:41;;;;;;;;;3.67;3.67;;;;;;;;5001123;28;45382;-81
2023/05/07 11:18:06;;;;;;;;;3.67;3.33;;;;;;;;5021011;28;45357;-80
2023/05/07 11:20:52;;;;;;;;;3.25;3.25;;;;;;;;5039550;28;46124;-80
2023/05/07 11:23:32;;;;;;;;;5.00;5.00;;;;;;;;5041171;28;45462;-80
2023/05/07 11:25:59;;;;;;;;;5.50;4.25;;;;;;;;5049629;28;45392;-80
2023/05/07 11:28:24;;;;;;;;;4.00;4.00;;;;;;;;5050265;28;45408;-80
2023/05/07 11:30:49;;;;;;;;;4.00;4.00;;;;;;;;5051633;28;45395;-80
2023/05/07 11:33:17;;;;;;;;;3.00;3.00;;;;;;;;5044546;28;45358;-79
2023/05/07 11:35:42;;;;;;;;;3.75;3.75;;;;;;;;5037612;28;45427;-80
2023/05/07 11:38:07;;;;;;;;;3.00;3.00;;;;;;;;5047517;28;45385;-79
2023/05/07 11:40:32;;;;;;;;;6.75;5.25;;;;;;;;5042320;28;45458;-80
2023/05/07 11:42:58;;;;;;;;;5.25;5.25;;;;;;;;5026410;28;45408;-80
2023/05/07 11:45:27;;;;;;;;;13.00;11.50;;;;;;;;5017533;28;45311;-80
2023/05/07 11:47:52;;;;;;;;;6.75;6.75;;;;;;;;5034134;28;45360;-80
2023/05/07 11:52:52;;;;;;;;;7.00;6.00;;;;;;;;6105129;22;46142;-77
2023/05/07 11:55:18;;;;;;;;;6.00;6.00;;;;;;;;4990473;28;45624;-76
2023/05/07 11:57:44;;;;;;;;;8.25;6.75;;;;;;;;5007859;22;45525;-68
2023/05/07 12:00:09;;;;;;;;;5.00;5.00;;;;;;;;5000916;28;47207;-68
2023/05/07 12:02:35;;;;;;;;;9.75;8.75;;;;;;;;4994264;28;45326;-68
2023/05/07 12:05:00;;;;;;;;;6.50;6.00;;;;;;;;5006965;28;45430;-67
2023/05/07 12:07:25;;;;;;;;;6.00;6.00;;;;;;;;5015411;28;45520;-68
2023/05/07 12:09:51;;;;;;;;;5.00;5.00;;;;;;;;5015099;28;46414;-68
2023/05/07 12:12:17;;;;;;;;;6.00;6.00;;;;;;;;5006559;28;45388;-68
2023/05/07 12:14:44;;;;;;;;;7.75;6.00;;;;;;;;4995746;28;45323;-67
2023/05/07 12:17:09;;;;;;;;;4.00;4.00;;;;;;;;4995453;28;45410;-68
2023/05/07 12:19:35;;;;;;;;;3.00;3.00;;;;;;;;4994919;28;46339;-68
2023/05/07 12:22:02;;;;;;;;;3.50;3.50;;;;;;;;4995300;28;45713;-68
2023/05/07 12:24:27;;;;;;;;;4.25;4.25;;;;;;;;4995842;28;45398;-68
2023/05/07 12:26:52;;;;;;;;;3.75;3.75;;;;;;;;4994524;28;45308;-68
2023/05/07 12:29:21;;;;;;;;;6.75;3.75;;;;;;;;4995783;28;45418;-68
2023/05/07 12:31:46;;;;;;;;;5.75;5.75;;;;;;;;5015092;28;45476;-67
2023/05/07 12:34:11;;;;;;;;;5.50;4.25;;;;;;;;5015110;28;45438;-68
2023/05/07 12:36:40;;;;;;;;;5.00;5.00;;;;;;;;5015031;28;45549;-68
2023/05/07 12:39:06;;;;;;;;;4.50;3.50;;;;;;;;5015078;28;45739;-69
2023/05/07 12:41:35;;;;;;;;;5.50;5.50;;;;;;;;5014914;28;45521;-69
2023/05/07 12:44:00;;;;;;;;;4.00;4.00;;;;;;;;5014366;28;45617;-72
2023/05/07 12:46:26;;;;;;;;;5.00;5.00;;;;;;;;5014953;28;45252;-69
2023/05/07 12:48:52;;;;;;;;;5.00;5.00;;;;;;;;5014501;28;45639;-70
2023/05/07 12:51:18;;;;;;;;;4.50;4.25;;;;;;;;5013776;28;45307;-69
2023/05/07 12:53:43;;;;;;;;;7.00;7.00;;;;;;;;5000155;28;45448;-70
2023/05/07 12:56:08;;;;;;;;;6.25;6.25;;;;;;;;4994049;28;45603;-70
2023/05/07 12:58:34;;;;;;;;;6.00;6.00;;;;;;;;4994892;28;46204;-71
2023/05/07 13:01:03;;;;;;;;;7.25;6.00;;;;;;;;4995776;28;45477;-70
2023/05/07 13:03:33;;;;;;;;;5.75;5.75;;;;;;;;4994762;28;45426;-69
2023/05/07 13:06:02;;;;;;;;;9.00;8.25;;;;;;;;4993231;28;45471;-72
2023/05/07 13:08:29;;;;;;;;;5.00;5.00;;;;;;;;4993310;28;45809;-72
2023/05/07 13:10:54;;;;;;;;;6.25;5.25;;;;;;;;4993405;28;45461;-73
2023/05/07 13:13:20;;;;;;;;;2.00;2.00;;;;;;;;4993479;28;45361;-73
2023/05/07 13:15:45;;;;;;;;;2.67;2.67;;;;;;;;4994322;28;45561;-74
2023/05/07 13:18:11;;;;;;;;;3.00;2.67;;;;;;;;4993114;28;47134;-73
2023/05/07 13:20:36;;;;;;;;;2.00;2.00;;;;;;;;4993066;28;45501;-73
2023/05/07 13:23:01;;;;;;;;;3.00;3.00;;;;;;;;4993702;28;45380;-72
2023/05/07 13:25:27;;;;;;;;;2.75;2.75;;;;;;;;4994213;28;45668;-71
2023/05/07 13:27:52;;;;;;;;;2.00;1.00;;;;;;;;4991969;28;45883;-70
2023/05/07 13:30:17;;;;;;;;;4.00;2.50;;;;;;;;4993690;28;45505;-73
2023/05/07 13:32:43;;;;;;;;;3.50;3.50;;;;;;;;4993722;28;45397;-75
2023/05/07 13:35:08;;;;;;;;;2.50;2.50;;;;;;;;4993197;28;45529;-73
2023/05/07 13:37:33;;;;;;;;;3.33;2.33;;;;;;;;4992939;28;45494;-77
2023/05/07 13:39:58;;;;;;;;;3.00;3.00;;;;;;;;4993406;28;45496;-75
2023/05/07 13:42:23;;;;;;;;;0.75;0.75;;;;;;;;4993417;28;45755;-73
2023/05/07 13:44:49;;;;;;;;;3.50;3.50;;;;;;;;4993196;28;45378;-79
2023/05/07 13:47:14;;;;;;;;;4.00;4.00;;;;;;;;4993974;28;45648;-78
2023/05/07 13:49:39;;;;;;;;;5.75;4.25;;;;;;;;4993661;28;45978;-78
2023/05/07 13:52:04;;;;;;;;;6.00;6.00;;;;;;;;4996956;28;45461;-77
2023/05/07 13:54:29;;;;;;;;;5.00;4.00;;;;;;;;4996532;28;45378;-76
2023/05/07 13:56:55;;;;;;;;;5.00;4.25;;;;;;;;4995178;28;45661;-76
2023/05/07 13:59:20;;;;;;;;;7.75;6.75;;;;;;;;4992986;28;45391;-76
2023/05/07 14:01:45;;;;;;;;;7.75;6.50;;;;;;;;4995415;28;45462;-76
2023/05/07 14:04:11;;;;;;;;;6.50;6.50;;;;;;;;4996333;28;45510;-76
2023/05/07 14:06:36;;;;;;;;;8.00;8.00;;;;;;;;4994852;28;47944;-76
2023/05/07 14:09:01;;;;;;;;;8.50;8.50;;;;;;;;4996404;28;45421;-77
2023/05/07 14:11:26;;;;;;;;;9.00;9.00;;;;;;;;4995838;28;45538;-77
2023/05/07 14:13:51;;;;;;;;;9.75;8.75;;;;;;;;4996517;28;45550;-77
2023/05/07 14:16:16;;;;;;;;;7.75;7.50;;;;;;;;4996252;28;46677;-77
2023/05/07 14:18:42;;;;;;;;;8.50;8.50;;;;;;;;4995644;28;45398;-75
2023/05/07 14:21:09;;;;;;;;;9.75;8.50;;;;;;;;4996120;28;45628;-73
2023/05/07 14:23:34;;;;;;;;;8.50;8.50;;;;;;;;4995880;28;45435;-74
2023/05/07 14:25:59;;;;;;;;;8.75;8.25;;;;;;;;4995849;28;46237;-74
2023/05/07 14:28:25;;;;;;;;;5.25;5.00;;;;;;;;4995569;28;45442;-74
2023/05/07 14:30:50;;;;;;;;;8.50;6.25;;;;;;;;4996012;28;45461;-73
2023/05/07 14:33:15;;;;;;;;;10.25;6.75;;;;;;;;4995594;28;45838;-76
2023/05/07 14:35:40;;;;;;;;;6.50;6.00;;;;;;;;4995727;28;46140;-75
2023/05/07 14:38:05;;;;;;;;;6.00;6.00;;;;;;;;4995680;28;45429;-74